sensor_id;sensor_type;location;lat;lon;timestamp;pressure;altitude;pressure_sealevel;temperature
69590;BMP180;56792;50.644;17.984;2024-02-23T00:00:41;97551.80;;;8.40
69590;BMP180;56792;50.644;17.984;2024-02-23T00:03:13;97550.00;;;8.40
69590;BMP180;56792;50.644;17.984;2024-02-23T00:05:45;97551.00;;;8.40
69590;BMP180;56792;50.644;17.984;2024-02-23T00:08:16;97550.60;;;8.40
69590;BMP180;56792;50.644;17.984;2024-02-23T00:10:49;97544.80;;;8.40
69590;BMP180;56792;50.644;17.984;2024-02-23T00:13:20;97548.40;;;8.50
69590;BMP180;56792;50.644;17.984;2024-02-23T00:15:51;97545.60;;;8.50
69590;BMP180;56792;50.644;17.984;2024-02-23T00:18:23;97547.80;;;8.44
69590;BMP180;56792;50.644;17.984;2024-02-23T00:20:54;97540.80;;;8.40
69590;BMP180;56792;50.644;17.984;2024-02-23T00:23:26;97537.80;;;8.40
69590;BMP180;56792;50.644;17.984;2024-02-23T00:25:58;97543.40;;;8.40
69590;BMP180;56792;50.644;17.984;2024-02-23T00:28:29;97536.40;;;8.40
69590;BMP180;56792;50.644;17.984;2024-02-23T00:31:01;97540.00;;;8.38
69590;BMP180;56792;50.644;17.984;2024-02-23T00:33:32;97541.40;;;8.34
69590;BMP180;56792;50.644;17.984;2024-02-23T00:36:07;97536.80;;;8.36
69590;BMP180;56792;50.644;17.984;2024-02-23T00:38:38;97535.00;;;8.30
69590;BMP180;56792;50.644;17.984;2024-02-23T00:41:10;97534.40;;;8.30
69590;BMP180;56792;50.644;17.984;2024-02-23T00:43:44;97537.00;;;8.30
69590;BMP180;56792;50.644;17.984;2024-02-23T00:46:17;97537.00;;;8.26
69590;BMP180;56792;50.644;17.984;2024-02-23T00:48:48;97538.80;;;8.20
69590;BMP180;56792;50.644;17.984;2024-02-23T00:51:21;97537.40;;;8.20
69590;BMP180;56792;50.644;17.984;2024-02-23T00:53:52;97533.20;;;8.14
69590;BMP180;56792;50.644;17.984;2024-02-23T00:56:25;97531.40;;;8.10
69590;BMP180;56792;50.644;17.984;2024-02-23T00:58:57;97529.20;;;8.10
69590;BMP180;56792;50.644;17.984;2024-02-23T01:01:28;97523.40;;;8.10
69590;BMP180;56792;50.644;17.984;2024-02-23T01:04:02;97534.60;;;8.00
69590;BMP180;56792;50.644;17.984;2024-02-23T01:06:33;97533.00;;;8.00
69590;BMP180;56792;50.644;17.984;2024-02-23T01:09:04;97530.40;;;8.00
69590;BMP180;56792;50.644;17.984;2024-02-23T01:11:36;97534.20;;;8.00
69590;BMP180;56792;50.644;17.984;2024-02-23T01:14:07;97536.00;;;8.00
69590;BMP180;56792;50.644;17.984;2024-02-23T01:16:38;97532.20;;;8.00
69590;BMP180;56792;50.644;17.984;2024-02-23T01:19:10;97529.00;;;8.06
69590;BMP180;56792;50.644;17.984;2024-02-23T01:21:41;97523.80;;;8.10
69590;BMP180;56792;50.644;17.984;2024-02-23T01:24:13;97525.00;;;8.10
69590;BMP180;56792;50.644;17.984;2024-02-23T01:26:44;97527.60;;;8.10
69590;BMP180;56792;50.644;17.984;2024-02-23T01:29:15;97528.20;;;8.10
69590;BMP180;56792;50.644;17.984;2024-02-23T01:31:47;97526.20;;;8.10
69590;BMP180;56792;50.644;17.984;2024-02-23T01:34:18;97526.00;;;8.10
69590;BMP180;56792;50.644;17.984;2024-02-23T01:36:50;97527.20;;;8.20
69590;BMP180;56792;50.644;17.984;2024-02-23T01:39:21;97526.20;;;8.20
69590;BMP180;56792;50.644;17.984;2024-02-23T01:41:52;97527.80;;;8.20
69590;BMP180;56792;50.644;17.984;2024-02-23T01:44:24;97528.20;;;8.20
69590;BMP180;56792;50.644;17.984;2024-02-23T01:46:56;97520.60;;;8.20
69590;BMP180;56792;50.644;17.984;2024-02-23T01:49:28;97520.80;;;8.14
69590;BMP180;56792;50.644;17.984;2024-02-23T01:52:03;97519.60;;;8.20
69590;BMP180;56792;50.644;17.984;2024-02-23T01:54:36;97518.60;;;8.20
69590;BMP180;56792;50.644;17.984;2024-02-23T01:57:08;97517.60;;;8.20
69590;BMP180;56792;50.644;17.984;2024-02-23T01:59:41;97517.80;;;8.22
69590;BMP180;56792;50.644;17.984;2024-02-23T02:02:12;97509.80;;;8.20
69590;BMP180;56792;50.644;17.984;2024-02-23T02:04:44;97507.00;;;8.20
69590;BMP180;56792;50.644;17.984;2024-02-23T02:07:16;97514.20;;;8.20
69590;BMP180;56792;50.644;17.984;2024-02-23T02:09:48;97521.60;;;8.20
69590;BMP180;56792;50.644;17.984;2024-02-23T02:12:29;97517.00;;;8.10
69590;BMP180;56792;50.644;17.984;2024-02-23T02:15:01;97519.80;;;8.10
69590;BMP180;56792;50.644;17.984;2024-02-23T02:17:32;97518.60;;;8.10
69590;BMP180;56792;50.644;17.984;2024-02-23T02:20:06;97520.60;;;8.10
69590;BMP180;56792;50.644;17.984;2024-02-23T02:22:39;97520.00;;;8.10
69590;BMP180;56792;50.644;17.984;2024-02-23T02:25:13;97519.20;;;8.10
69590;BMP180;56792;50.644;17.984;2024-02-23T02:27:45;97520.80;;;8.10
69590;BMP180;56792;50.644;17.984;2024-02-23T02:30:17;97520.60;;;8.10
69590;BMP180;56792;50.644;17.984;2024-02-23T02:32:49;97521.20;;;8.06
69590;BMP180;56792;50.644;17.984;2024-02-23T02:35:20;97525.20;;;8.00
69590;BMP180;56792;50.644;17.984;2024-02-23T02:37:51;97522.00;;;8.00
69590;BMP180;56792;50.644;17.984;2024-02-23T02:40:23;97520.00;;;8.00
69590;BMP180;56792;50.644;17.984;2024-02-23T02:42:54;97525.40;;;8.00
69590;BMP180;56792;50.644;17.984;2024-02-23T02:45:26;97524.80;;;7.92
69590;BMP180;56792;50.644;17.984;2024-02-23T02:47:59;97528.40;;;7.90
69590;BMP180;56792;50.644;17.984;2024-02-23T02:50:31;97530.20;;;7.90
69590;BMP180;56792;50.644;17.984;2024-02-23T02:53:02;97525.60;;;7.90
69590;BMP180;56792;50.644;17.984;2024-02-23T02:55:34;97525.60;;;7.88
69590;BMP180;56792;50.644;17.984;2024-02-23T02:58:06;97523.20;;;7.80
69590;BMP180;56792;50.644;17.984;2024-02-23T03:00:37;97524.60;;;7.80
69590;BMP180;56792;50.644;17.984;2024-02-23T03:03:09;97528.80;;;7.80
69590;BMP180;56792;50.644;17.984;2024-02-23T03:05:41;97529.40;;;7.78
69590;BMP180;56792;50.644;17.984;2024-02-23T03:08:12;97526.60;;;7.74
69590;BMP180;56792;50.644;17.984;2024-02-23T03:10:44;97531.20;;;7.70
69590;BMP180;56792;50.644;17.984;2024-02-23T03:13:15;97527.60;;;7.70
69590;BMP180;56792;50.644;17.984;2024-02-23T03:15:47;97524.20;;;7.70
69590;BMP180;56792;50.644;17.984;2024-02-23T03:18:18;97528.00;;;7.70
69590;BMP180;56792;50.644;17.984;2024-02-23T03:20:50;97529.20;;;7.70
69590;BMP180;56792;50.644;17.984;2024-02-23T03:23:21;97533.40;;;7.70
69590;BMP180;56792;50.644;17.984;2024-02-23T03:25:53;97536.40;;;7.70
69590;BMP180;56792;50.644;17.984;2024-02-23T03:28:24;97535.40;;;7.70
69590;BMP180;56792;50.644;17.984;2024-02-23T03:30:56;97532.20;;;7.68
69590;BMP180;56792;50.644;17.984;2024-02-23T03:33:27;97532.20;;;7.60
69590;BMP180;56792;50.644;17.984;2024-02-23T03:36:00;97533.80;;;7.60
69590;BMP180;56792;50.644;17.984;2024-02-23T03:38:32;97534.40;;;7.60
69590;BMP180;56792;50.644;17.984;2024-02-23T03:41:05;97536.80;;;7.60
69590;BMP180;56792;50.644;17.984;2024-02-23T03:43:36;97537.40;;;7.58
69590;BMP180;56792;50.644;17.984;2024-02-23T03:46:08;97549.40;;;7.50
69590;BMP180;56792;50.644;17.984;2024-02-23T03:48:41;97561.80;;;7.50
69590;BMP180;56792;50.644;17.984;2024-02-23T03:51:13;97565.20;;;7.50
69590;BMP180;56792;50.644;17.984;2024-02-23T03:53:45;97565.00;;;7.50
69590;BMP180;56792;50.644;17.984;2024-02-23T03:56:17;97565.40;;;7.50
69590;BMP180;56792;50.644;17.984;2024-02-23T03:58:48;97567.80;;;7.48
69590;BMP180;56792;50.644;17.984;2024-02-23T04:01:20;97569.00;;;7.40
69590;BMP180;56792;50.644;17.984;2024-02-23T04:03:51;97569.00;;;7.40
69590;BMP180;56792;50.644;17.984;2024-02-23T04:06:23;97581.00;;;7.40
69590;BMP180;56792;50.644;17.984;2024-02-23T04:08:54;97587.60;;;7.40
69590;BMP180;56792;50.644;17.984;2024-02-23T04:11:26;97591.00;;;7.40
69590;BMP180;56792;50.644;17.984;2024-02-23T04:13:57;97596.40;;;7.42
69590;BMP180;56792;50.644;17.984;2024-02-23T04:16:30;97600.60;;;7.50
69590;BMP180;56792;50.644;17.984;2024-02-23T04:19:02;97604.40;;;7.42
69590;BMP180;56792;50.644;17.984;2024-02-23T04:21:34;97609.40;;;7.46
69590;BMP180;56792;50.644;17.984;2024-02-23T04:24:06;97620.20;;;7.40
69590;BMP180;56792;50.644;17.984;2024-02-23T04:26:38;97622.60;;;7.40
69590;BMP180;56792;50.644;17.984;2024-02-23T04:29:10;97626.00;;;7.40
69590;BMP180;56792;50.644;17.984;2024-02-23T04:31:42;97627.20;;;7.40
69590;BMP180;56792;50.644;17.984;2024-02-23T04:34:13;97623.40;;;7.40
69590;BMP180;56792;50.644;17.984;2024-02-23T04:36:46;97642.80;;;7.40
69590;BMP180;56792;50.644;17.984;2024-02-23T04:39:17;97643.40;;;7.38
69590;BMP180;56792;50.644;17.984;2024-02-23T04:41:49;97653.60;;;7.32
69590;BMP180;56792;50.644;17.984;2024-02-23T04:44:20;97650.40;;;7.30
69590;BMP180;56792;50.644;17.984;2024-02-23T04:46:52;97649.60;;;7.30
69590;BMP180;56792;50.644;17.984;2024-02-23T04:49:23;97652.40;;;7.30
69590;BMP180;56792;50.644;17.984;2024-02-23T04:51:55;97649.80;;;7.30
69590;BMP180;56792;50.644;17.984;2024-02-23T04:54:26;97650.60;;;7.30
69590;BMP180;56792;50.644;17.984;2024-02-23T04:56:58;97655.80;;;7.30
69590;BMP180;56792;50.644;17.984;2024-02-23T04:59:29;97661.80;;;7.30
69590;BMP180;56792;50.644;17.984;2024-02-23T05:02:02;97670.80;;;7.30
69590;BMP180;56792;50.644;17.984;2024-02-23T05:04:34;97671.60;;;7.30
69590;BMP180;56792;50.644;17.984;2024-02-23T05:07:05;97674.60;;;7.30
69590;BMP180;56792;50.644;17.984;2024-02-23T05:09:37;97683.60;;;7.30
69590;BMP180;56792;50.644;17.984;2024-02-23T05:12:11;97687.20;;;7.30
69590;BMP180;56792;50.644;17.984;2024-02-23T05:14:43;97686.20;;;7.30
69590;BMP180;56792;50.644;17.984;2024-02-23T05:17:14;97688.80;;;7.30
69590;BMP180;56792;50.644;17.984;2024-02-23T05:19:46;97681.00;;;7.22
69590;BMP180;56792;50.644;17.984;2024-02-23T05:22:18;97681.60;;;7.20
69590;BMP180;56792;50.644;17.984;2024-02-23T05:24:50;97684.80;;;7.20
69590;BMP180;56792;50.644;17.984;2024-02-23T05:27:22;97691.00;;;7.20
69590;BMP180;56792;50.644;17.984;2024-02-23T05:29:53;97693.60;;;7.20
69590;BMP180;56792;50.644;17.984;2024-02-23T05:32:25;97698.00;;;7.20
69590;BMP180;56792;50.644;17.984;2024-02-23T05:34:56;97700.60;;;7.20
69590;BMP180;56792;50.644;17.984;2024-02-23T05:37:28;97705.60;;;7.20
69590;BMP180;56792;50.644;17.984;2024-02-23T05:39:59;97712.60;;;7.20
69590;BMP180;56792;50.644;17.984;2024-02-23T05:42:34;97705.80;;;7.20
69590;BMP180;56792;50.644;17.984;2024-02-23T05:45:07;97716.40;;;7.20
69590;BMP180;56792;50.644;17.984;2024-02-23T05:47:39;97720.60;;;7.20
69590;BMP180;56792;50.644;17.984;2024-02-23T05:50:11;97726.40;;;7.20
69590;BMP180;56792;50.644;17.984;2024-02-23T05:52:43;97730.00;;;7.20
69590;BMP180;56792;50.644;17.984;2024-02-23T05:55:14;97731.60;;;7.20
69590;BMP180;56792;50.644;17.984;2024-02-23T05:57:46;97741.80;;;7.20
69590;BMP180;56792;50.644;17.984;2024-02-23T06:00:20;97745.40;;;7.20
69590;BMP180;56792;50.644;17.984;2024-02-23T06:02:51;97749.80;;;7.20
69590;BMP180;56792;50.644;17.984;2024-02-23T06:05:23;97753.80;;;7.20
69590;BMP180;56792;50.644;17.984;2024-02-23T06:07:54;97760.40;;;7.20
69590;BMP180;56792;50.644;17.984;2024-02-23T06:10:26;97759.80;;;7.20
69590;BMP180;56792;50.644;17.984;2024-02-23T06:12:57;97761.00;;;7.20
69590;BMP180;56792;50.644;17.984;2024-02-23T06:15:29;97768.60;;;7.20
69590;BMP180;56792;50.644;17.984;2024-02-23T06:18:00;97778.60;;;7.20
69590;BMP180;56792;50.644;17.984;2024-02-23T06:20:32;97775.80;;;7.20
69590;BMP180;56792;50.644;17.984;2024-02-23T06:23:03;97773.40;;;7.20
69590;BMP180;56792;50.644;17.984;2024-02-23T06:25:35;97770.00;;;7.20
69590;BMP180;56792;50.644;17.984;2024-02-23T06:28:07;97771.00;;;7.20
69590;BMP180;56792;50.644;17.984;2024-02-23T06:30:39;97776.20;;;7.20
69590;BMP180;56792;50.644;17.984;2024-02-23T06:33:10;97780.20;;;7.26
69590;BMP180;56792;50.644;17.984;2024-02-23T06:35:42;97783.40;;;7.30
69590;BMP180;56792;50.644;17.984;2024-02-23T06:38:13;97793.20;;;7.30
69590;BMP180;56792;50.644;17.984;2024-02-23T06:40:45;97798.00;;;7.30
69590;BMP180;56792;50.644;17.984;2024-02-23T06:43:17;97795.40;;;7.32
69590;BMP180;56792;50.644;17.984;2024-02-23T06:45:48;97803.00;;;7.40
69590;BMP180;56792;50.644;17.984;2024-02-23T06:48:20;97811.20;;;7.40
69590;BMP180;56792;50.644;17.984;2024-02-23T06:50:51;97806.20;;;7.40
69590;BMP180;56792;50.644;17.984;2024-02-23T06:53:23;97814.20;;;7.40
69590;BMP180;56792;50.644;17.984;2024-02-23T06:55:54;97816.00;;;7.48
69590;BMP180;56792;50.644;17.984;2024-02-23T06:58:26;97815.20;;;7.50
69590;BMP180;56792;50.644;17.984;2024-02-23T07:00:57;97824.60;;;7.50
69590;BMP180;56792;50.644;17.984;2024-02-23T07:03:30;97827.20;;;7.50
69590;BMP180;56792;50.644;17.984;2024-02-23T07:06:02;97827.00;;;7.50
69590;BMP180;56792;50.644;17.984;2024-02-23T07:08:33;97836.20;;;7.52
69590;BMP180;56792;50.644;17.984;2024-02-23T07:11:05;97837.80;;;7.56
69590;BMP180;56792;50.644;17.984;2024-02-23T07:13:37;97837.00;;;7.60
69590;BMP180;56792;50.644;17.984;2024-02-23T07:16:09;97839.20;;;7.60
69590;BMP180;56792;50.644;17.984;2024-02-23T07:18:41;97846.20;;;7.60
69590;BMP180;56792;50.644;17.984;2024-02-23T07:21:13;97846.80;;;7.60
69590;BMP180;56792;50.644;17.984;2024-02-23T07:23:44;97844.80;;;7.60
69590;BMP180;56792;50.644;17.984;2024-02-23T07:26:16;97842.60;;;7.64
69590;BMP180;56792;50.644;17.984;2024-02-23T07:28:49;97846.80;;;7.70
69590;BMP180;56792;50.644;17.984;2024-02-23T07:31:21;97838.60;;;7.70
69590;BMP180;56792;50.644;17.984;2024-02-23T07:33:52;97844.20;;;7.70
69590;BMP180;56792;50.644;17.984;2024-02-23T07:36:24;97849.40;;;7.70
69590;BMP180;56792;50.644;17.984;2024-02-23T07:38:56;97845.40;;;7.70
69590;BMP180;56792;50.644;17.984;2024-02-23T07:41:27;97842.20;;;7.70
69590;BMP180;56792;50.644;17.984;2024-02-23T07:43:59;97837.40;;;7.70
69590;BMP180;56792;50.644;17.984;2024-02-23T07:46:30;97839.60;;;7.70
69590;BMP180;56792;50.644;17.984;2024-02-23T07:49:02;97840.40;;;7.70
69590;BMP180;56792;50.644;17.984;2024-02-23T07:51:33;97841.40;;;7.70
69590;BMP180;56792;50.644;17.984;2024-02-23T07:54:05;97843.80;;;7.76
69590;BMP180;56792;50.644;17.984;2024-02-23T07:56:36;97848.80;;;7.80
69590;BMP180;56792;50.644;17.984;2024-02-23T07:59:08;97849.60;;;7.80
69590;BMP180;56792;50.644;17.984;2024-02-23T08:01:39;97852.80;;;7.80
69590;BMP180;56792;50.644;17.984;2024-02-23T08:04:11;97854.20;;;7.90
69590;BMP180;56792;50.644;17.984;2024-02-23T08:06:43;97859.60;;;7.90
69590;BMP180;56792;50.644;17.984;2024-02-23T08:09:15;97857.20;;;7.90
69590;BMP180;56792;50.644;17.984;2024-02-23T08:11:47;97855.40;;;7.92
69590;BMP180;56792;50.644;17.984;2024-02-23T08:14:19;97859.40;;;8.00
69590;BMP180;56792;50.644;17.984;2024-02-23T08:16:50;97860.20;;;8.00
69590;BMP180;56792;50.644;17.984;2024-02-23T08:19:22;97862.40;;;8.10
69590;BMP180;56792;50.644;17.984;2024-02-23T08:21:53;97866.00;;;8.10
69590;BMP180;56792;50.644;17.984;2024-02-23T08:24:25;97875.20;;;8.10
69590;BMP180;56792;50.644;17.984;2024-02-23T08:26:57;97879.00;;;8.10
69590;BMP180;56792;50.644;17.984;2024-02-23T08:29:28;97876.20;;;8.10
69590;BMP180;56792;50.644;17.984;2024-02-23T08:32:00;97873.40;;;8.12
69590;BMP180;56792;50.644;17.984;2024-02-23T08:34:31;97877.20;;;8.20
69590;BMP180;56792;50.644;17.984;2024-02-23T08:37:04;97878.40;;;8.20
69590;BMP180;56792;50.644;17.984;2024-02-23T08:39:36;97878.40;;;8.30
69590;BMP180;56792;50.644;17.984;2024-02-23T08:42:08;97879.20;;;8.30
69590;BMP180;56792;50.644;17.984;2024-02-23T08:44:39;97882.60;;;8.40
69590;BMP180;56792;50.644;17.984;2024-02-23T08:47:11;97886.80;;;8.50
69590;BMP180;56792;50.644;17.984;2024-02-23T08:49:42;97888.00;;;8.60
69590;BMP180;56792;50.644;17.984;2024-02-23T08:52:14;97895.00;;;8.64
69590;BMP180;56792;50.644;17.984;2024-02-23T08:54:45;97900.40;;;8.76
69590;BMP180;56792;50.644;17.984;2024-02-23T08:57:17;97907.60;;;8.90
69590;BMP180;56792;50.644;17.984;2024-02-23T08:59:50;97912.20;;;8.90
69590;BMP180;56792;50.644;17.984;2024-02-23T09:02:21;97919.20;;;8.96
69590;BMP180;56792;50.644;17.984;2024-02-23T09:04:53;97931.00;;;9.10
69590;BMP180;56792;50.644;17.984;2024-02-23T09:07:24;97932.40;;;9.20
69590;BMP180;56792;50.644;17.984;2024-02-23T09:09:56;97933.20;;;9.30
69590;BMP180;56792;50.644;17.984;2024-02-23T09:12:27;97930.80;;;9.30
69590;BMP180;56792;50.644;17.984;2024-02-23T09:14:59;97926.60;;;9.40
69590;BMP180;56792;50.644;17.984;2024-02-23T09:17:30;97925.00;;;9.50
69590;BMP180;56792;50.644;17.984;2024-02-23T09:20:02;97927.60;;;9.50
69590;BMP180;56792;50.644;17.984;2024-02-23T09:22:33;97941.40;;;9.60
69590;BMP180;56792;50.644;17.984;2024-02-23T09:25:09;97943.40;;;9.60
69590;BMP180;56792;50.644;17.984;2024-02-23T09:27:41;97945.60;;;9.60
69590;BMP180;56792;50.644;17.984;2024-02-23T09:30:16;97954.00;;;9.64
69590;BMP180;56792;50.644;17.984;2024-02-23T09:32:47;97962.60;;;9.70
69590;BMP180;56792;50.644;17.984;2024-02-23T09:35:19;97967.20;;;9.80
69590;BMP180;56792;50.644;17.984;2024-02-23T09:37:51;97971.80;;;9.80
69590;BMP180;56792;50.644;17.984;2024-02-23T09:40:22;97973.60;;;9.90
69590;BMP180;56792;50.644;17.984;2024-02-23T09:42:59;97982.00;;;9.90
69590;BMP180;56792;50.644;17.984;2024-02-23T09:45:31;97979.80;;;10.00
69590;BMP180;56792;50.644;17.984;2024-02-23T09:48:05;97981.40;;;10.00
69590;BMP180;56792;50.644;17.984;2024-02-23T09:50:38;97984.40;;;10.00
69590;BMP180;56792;50.644;17.984;2024-02-23T09:53:14;97989.40;;;10.10
69590;BMP180;56792;50.644;17.984;2024-02-23T09:55:47;97989.20;;;10.10
69590;BMP180;56792;50.644;17.984;2024-02-23T09:58:19;97991.40;;;10.10
69590;BMP180;56792;50.644;17.984;2024-02-23T10:00:51;97994.60;;;10.10
69590;BMP180;56792;50.644;17.984;2024-02-23T10:03:23;97989.20;;;10.10
69590;BMP180;56792;50.644;17.984;2024-02-23T10:05:57;97985.00;;;10.20
69590;BMP180;56792;50.644;17.984;2024-02-23T10:08:31;97988.00;;;10.20
69590;BMP180;56792;50.644;17.984;2024-02-23T10:11:04;97998.60;;;10.20
69590;BMP180;56792;50.644;17.984;2024-02-23T10:13:35;98003.80;;;10.30
69590;BMP180;56792;50.644;17.984;2024-02-23T10:16:08;98003.40;;;10.30
69590;BMP180;56792;50.644;17.984;2024-02-23T10:18:42;98016.80;;;10.30
69590;BMP180;56792;50.644;17.984;2024-02-23T10:21:13;98019.60;;;10.30
69590;BMP180;56792;50.644;17.984;2024-02-23T10:23:45;98027.80;;;10.38
69590;BMP180;56792;50.644;17.984;2024-02-23T10:26:20;98031.20;;;10.32
69590;BMP180;56792;50.644;17.984;2024-02-23T10:28:52;98038.00;;;10.32
69590;BMP180;56792;50.644;17.984;2024-02-23T10:31:27;98042.00;;;10.34
69590;BMP180;56792;50.644;17.984;2024-02-23T10:34:00;98044.40;;;10.40
69590;BMP180;56792;50.644;17.984;2024-02-23T10:36:41;98044.80;;;10.40
69590;BMP180;56792;50.644;17.984;2024-02-23T10:39:18;98047.60;;;10.30
69590;BMP180;56792;50.644;17.984;2024-02-23T10:41:58;98046.20;;;10.28
69590;BMP180;56792;50.644;17.984;2024-02-23T10:44:31;98052.00;;;10.24
69590;BMP180;56792;50.644;17.984;2024-02-23T10:47:04;98046.60;;;10.20
69590;BMP180;56792;50.644;17.984;2024-02-23T10:49:37;98046.60;;;10.30
69590;BMP180;56792;50.644;17.984;2024-02-23T10:52:12;98044.80;;;10.30
69590;BMP180;56792;50.644;17.984;2024-02-23T10:54:49;98050.60;;;10.30
69590;BMP180;56792;50.644;17.984;2024-02-23T10:57:21;98050.40;;;10.30
69590;BMP180;56792;50.644;17.984;2024-02-23T10:59:53;98052.00;;;10.30
69590;BMP180;56792;50.644;17.984;2024-02-23T11:02:27;98051.00;;;10.40
69590;BMP180;56792;50.644;17.984;2024-02-23T11:05:00;98059.60;;;10.40
69590;BMP180;56792;50.644;17.984;2024-02-23T11:07:37;98055.60;;;10.50
69590;BMP180;56792;50.644;17.984;2024-02-23T11:10:12;98051.40;;;10.52
69590;BMP180;56792;50.644;17.984;2024-02-23T11:12:44;98059.40;;;10.54
69590;BMP180;56792;50.644;17.984;2024-02-23T11:15:30;98056.20;;;10.60
69590;BMP180;56792;50.644;17.984;2024-02-23T11:18:04;98056.20;;;10.60
69590;BMP180;56792;50.644;17.984;2024-02-23T11:20:40;98061.00;;;10.60
69590;BMP180;56792;50.644;17.984;2024-02-23T11:23:19;98060.60;;;10.62
69590;BMP180;56792;50.644;17.984;2024-02-23T11:26:07;98062.80;;;10.64
69590;BMP180;56792;50.644;17.984;2024-02-23T11:28:49;98070.20;;;10.70
69590;BMP180;56792;50.644;17.984;2024-02-23T11:31:29;98066.20;;;10.80
69590;BMP180;56792;50.644;17.984;2024-02-23T11:34:00;98064.60;;;10.80
69590;BMP180;56792;50.644;17.984;2024-02-23T11:36:34;98068.40;;;10.76
69590;BMP180;56792;50.644;17.984;2024-02-23T11:39:06;98074.00;;;10.80
69590;BMP180;56792;50.644;17.984;2024-02-23T11:41:39;98069.20;;;10.80
69590;BMP180;56792;50.644;17.984;2024-02-23T11:44:11;98065.80;;;10.88
69590;BMP180;56792;50.644;17.984;2024-02-23T11:46:44;98068.40;;;10.90
69590;BMP180;56792;50.644;17.984;2024-02-23T11:49:17;98077.00;;;10.90
69590;BMP180;56792;50.644;17.984;2024-02-23T11:51:49;98078.80;;;10.92
69590;BMP180;56792;50.644;17.984;2024-02-23T11:54:20;98075.20;;;10.92
69590;BMP180;56792;50.644;17.984;2024-02-23T11:56:52;98069.20;;;11.00
69590;BMP180;56792;50.644;17.984;2024-02-23T11:59:24;98074.00;;;11.00
69590;BMP180;56792;50.644;17.984;2024-02-23T12:01:56;98083.60;;;11.10
69590;BMP180;56792;50.644;17.984;2024-02-23T12:04:29;98085.20;;;11.10
69590;BMP180;56792;50.644;17.984;2024-02-23T12:07:02;98082.40;;;11.10
69590;BMP180;56792;50.644;17.984;2024-02-23T12:09:34;98080.80;;;11.20
69590;BMP180;56792;50.644;17.984;2024-02-23T12:12:06;98088.00;;;11.20
69590;BMP180;56792;50.644;17.984;2024-02-23T12:14:40;98089.40;;;11.20
69590;BMP180;56792;50.644;17.984;2024-02-23T12:17:12;98095.20;;;11.30
69590;BMP180;56792;50.644;17.984;2024-02-23T12:19:44;98094.40;;;11.40
69590;BMP180;56792;50.644;17.984;2024-02-23T12:22:16;98097.20;;;11.30
69590;BMP180;56792;50.644;17.984;2024-02-23T12:24:48;98106.00;;;11.38
69590;BMP180;56792;50.644;17.984;2024-02-23T12:27:21;98108.80;;;11.40
69590;BMP180;56792;50.644;17.984;2024-02-23T12:29:56;98113.60;;;11.30
69590;BMP180;56792;50.644;17.984;2024-02-23T12:32:28;98117.80;;;11.30
69590;BMP180;56792;50.644;17.984;2024-02-23T12:34:59;98119.20;;;11.28
69590;BMP180;56792;50.644;17.984;2024-02-23T12:37:36;98116.40;;;11.20
69590;BMP180;56792;50.644;17.984;2024-02-23T12:40:10;98118.40;;;11.20
69590;BMP180;56792;50.644;17.984;2024-02-23T12:42:41;98121.20;;;11.20
69590;BMP180;56792;50.644;17.984;2024-02-23T12:45:14;98121.00;;;11.20
69590;BMP180;56792;50.644;17.984;2024-02-23T12:47:46;98121.00;;;11.20
69590;BMP180;56792;50.644;17.984;2024-02-23T12:50:18;98123.60;;;11.10
69590;BMP180;56792;50.644;17.984;2024-02-23T12:52:50;98126.20;;;11.06
69590;BMP180;56792;50.644;17.984;2024-02-23T12:55:22;98127.20;;;11.00
69590;BMP180;56792;50.644;17.984;2024-02-23T12:57:54;98136.20;;;10.90
69590;BMP180;56792;50.644;17.984;2024-02-23T13:00:26;98140.80;;;10.90
69590;BMP180;56792;50.644;17.984;2024-02-23T13:02:57;98140.00;;;10.80
69590;BMP180;56792;50.644;17.984;2024-02-23T13:05:29;98138.20;;;10.72
69590;BMP180;56792;50.644;17.984;2024-02-23T13:08:00;98140.60;;;10.70
69590;BMP180;56792;50.644;17.984;2024-02-23T13:10:32;98141.80;;;10.60
69590;BMP180;56792;50.644;17.984;2024-02-23T13:13:05;98146.00;;;10.60
69590;BMP180;56792;50.644;17.984;2024-02-23T13:15:37;98147.20;;;10.60
69590;BMP180;56792;50.644;17.984;2024-02-23T13:18:08;98148.40;;;10.60
69590;BMP180;56792;50.644;17.984;2024-02-23T13:20:41;98147.20;;;10.60
69590;BMP180;56792;50.644;17.984;2024-02-23T13:23:13;98145.00;;;10.50
69590;BMP180;56792;50.644;17.984;2024-02-23T13:25:46;98155.20;;;10.50
69590;BMP180;56792;50.644;17.984;2024-02-23T13:28:17;98157.40;;;10.50
69590;BMP180;56792;50.644;17.984;2024-02-23T13:30:49;98158.40;;;10.40
69590;BMP180;56792;50.644;17.984;2024-02-23T13:33:21;98164.40;;;10.40
69590;BMP180;56792;50.644;17.984;2024-02-23T13:35:54;98167.80;;;10.30
69590;BMP180;56792;50.644;17.984;2024-02-23T13:38:25;98168.40;;;10.30
69590;BMP180;56792;50.644;17.984;2024-02-23T13:40:57;98173.60;;;10.20
69590;BMP180;56792;50.644;17.984;2024-02-23T13:43:29;98178.20;;;10.10
69590;BMP180;56792;50.644;17.984;2024-02-23T13:46:00;98180.20;;;10.00
69590;BMP180;56792;50.644;17.984;2024-02-23T13:48:34;98185.00;;;9.90
69590;BMP180;56792;50.644;17.984;2024-02-23T13:51:05;98188.00;;;9.90
69590;BMP180;56792;50.644;17.984;2024-02-23T13:53:37;98193.00;;;9.80
69590;BMP180;56792;50.644;17.984;2024-02-23T13:56:09;98193.80;;;9.70
69590;BMP180;56792;50.644;17.984;2024-02-23T13:58:41;98192.40;;;9.64
69590;BMP180;56792;50.644;17.984;2024-02-23T14:01:13;98192.00;;;9.60
69590;BMP180;56792;50.644;17.984;2024-02-23T14:03:45;98191.00;;;9.60
69590;BMP180;56792;50.644;17.984;2024-02-23T14:06:16;98193.00;;;9.50
69590;BMP180;56792;50.644;17.984;2024-02-23T14:08:48;98196.20;;;9.40
69590;BMP180;56792;50.644;17.984;2024-02-23T14:11:20;98201.80;;;9.40
69590;BMP180;56792;50.644;17.984;2024-02-23T14:13:52;98201.60;;;9.30
69590;BMP180;56792;50.644;17.984;2024-02-23T14:16:23;98198.40;;;9.30
69590;BMP180;56792;50.644;17.984;2024-02-23T14:18:55;98195.20;;;9.30
69590;BMP180;56792;50.644;17.984;2024-02-23T14:21:27;98197.00;;;9.20
69590;BMP180;56792;50.644;17.984;2024-02-23T14:23:58;98201.00;;;9.10
69590;BMP180;56792;50.644;17.984;2024-02-23T14:26:30;98202.80;;;9.00
69590;BMP180;56792;50.644;17.984;2024-02-23T14:29:01;98201.80;;;9.00
69590;BMP180;56792;50.644;17.984;2024-02-23T14:31:33;98197.80;;;8.90
69590;BMP180;56792;50.644;17.984;2024-02-23T14:34:04;98192.80;;;8.90